Time;durP1;ratioP1;P1;durP2;ratioP2;P2;SDS_P1;SDS_P2;PMS_P1;PMS_P2;Temp;Humidity;BMP_temperature;BMP_pressure;BME280_temperature;BME280_humidity;BME280_pressure;Samples;Min_cycle;Max_cycle;Signal;HPM_P1;HPM_P2
2023/01/02 00:00:09;;;;;;;7.82;2.78;;;10.60;99.90;;;;;;5060983;28;20044;-47
2023/01/02 00:02:35;;;;;;;10.85;3.67;;;10.50;99.90;;;;;;5055519;28;20123;-48
2023/01/02 00:05:00;;;;;;;7.45;3.83;;;10.50;99.90;;;;;;5059231;28;20123;-48
2023/01/02 00:07:26;;;;;;;7.50;3.65;;;10.60;99.90;;;;;;5056667;28;20036;-48
2023/01/02 00:09:52;;;;;;;8.45;3.50;;;10.50;99.90;;;;;;5061244;28;20040;-47
2023/01/02 00:12:17;;;;;;;7.32;3.50;;;10.60;99.90;;;;;;5064294;28;20032;-49
2023/01/02 00:14:43;;;;;;;9.07;3.58;;;10.60;99.90;;;;;;5035507;28;20040;-50
2023/01/02 00:17:09;;;;;;;7.82;3.33;;;10.50;99.90;;;;;;5062190;28;20091;-42
2023/01/02 00:19:34;;;;;;;8.70;4.05;;;10.60;99.90;;;;;;5065431;28;20094;-52
2023/01/02 00:22:00;;;;;;;10.43;4.10;;;10.60;99.90;;;;;;5063839;28;20039;-48
2023/01/02 00:24:26;;;;;;;8.50;3.58;;;10.60;99.90;;;;;;5050044;28;20482;-51
2023/01/02 00:26:51;;;;;;;9.32;4.22;;;10.60;99.90;;;;;;5067069;28;20498;-49
2023/01/02 00:29:17;;;;;;;7.75;3.63;;;10.60;99.90;;;;;;5063307;28;20047;-49
2023/01/02 00:31:42;;;;;;;8.05;3.80;;;10.60;99.90;;;;;;5048514;28;20036;-48
2023/01/02 00:34:08;;;;;;;9.60;4.18;;;10.60;99.90;;;;;;5068232;28;20132;-50
2023/01/02 00:36:34;;;;;;;10.32;4.10;;;10.60;99.90;;;;;;5066844;28;20047;-49
2023/01/02 00:38:59;;;;;;;11.50;4.25;;;10.60;99.90;;;;;;5063454;28;20516;-50
2023/01/02 00:41:25;;;;;;;8.55;4.05;;;10.60;99.90;;;;;;5070011;28;20478;-47
2023/01/02 00:43:51;;;;;;;7.85;4.15;;;10.60;99.90;;;;;;5067208;28;20035;-47
2023/01/02 00:46:17;;;;;;;8.38;4.25;;;10.60;99.90;;;;;;5071050;28;20600;-50
2023/01/02 00:48:43;;;;;;;9.65;4.68;;;10.60;99.90;;;;;;5069887;28;20047;-48
2023/01/02 00:51:09;;;;;;;8.95;4.70;;;10.60;99.90;;;;;;5066918;28;20510;-50
2023/01/02 00:53:35;;;;;;;9.43;4.68;;;10.60;99.90;;;;;;5071395;28;20028;-48
2023/01/02 00:56:01;;;;;;;9.52;3.90;;;10.60;99.90;;;;;;5069205;28;20578;-50
2023/01/02 00:58:26;;;;;;;11.40;4.55;;;10.60;99.90;;;;;;5071009;28;20119;-49
2023/01/02 01:00:52;;;;;;;8.95;4.20;;;10.60;99.90;;;;;;5069496;28;20069;-47
2023/01/02 01:03:18;;;;;;;14.15;5.25;;;10.70;99.90;;;;;;5064716;28;20036;-48
2023/01/02 01:05:43;;;;;;;11.23;4.35;;;10.70;99.90;;;;;;5069403;28;20036;-51
2023/01/02 01:08:09;;;;;;;7.60;4.30;;;10.70;99.90;;;;;;5068625;28;20040;-47
2023/01/02 01:10:36;;;;;;;13.05;4.32;;;10.70;99.90;;;;;;5066532;28;20055;-51
2023/01/02 01:13:03;;;;;;;13.27;4.95;;;10.70;99.90;;;;;;5067494;28;20044;-45
2023/01/02 01:15:29;;;;;;;13.05;4.65;;;10.70;99.90;;;;;;5065589;28;20043;-41
2023/01/02 01:17:55;;;;;;;12.77;5.88;;;10.70;99.90;;;;;;5060984;28;20025;-50
2023/01/02 01:20:20;;;;;;;11.68;5.78;;;10.70;99.90;;;;;;5066258;28;20029;-52
2023/01/02 01:22:46;;;;;;;12.45;5.25;;;10.70;99.90;;;;;;5060212;28;20034;-50
2023/01/02 01:25:12;;;;;;;11.63;5.00;;;10.70;99.90;;;;;;5035754;28;20040;-49
2023/01/02 01:27:37;;;;;;;11.45;4.68;;;10.70;99.90;;;;;;5070781;28;20407;-48
2023/01/02 01:30:05;;;;;;;10.68;4.90;;;10.70;99.90;;;;;;5066081;28;20056;-44
2023/01/02 01:32:31;;;;;;;11.75;4.80;;;10.70;99.90;;;;;;5066183;28;20048;-49
2023/01/02 01:34:56;;;;;;;10.63;4.60;;;10.70;99.90;;;;;;5068243;28;20366;-45
2023/01/02 01:37:22;;;;;;;11.02;5.18;;;10.70;99.90;;;;;;5068879;28;20135;-45
2023/01/02 01:39:47;;;;;;;8.27;4.35;;;10.70;99.90;;;;;;5066117;28;20111;-46
2023/01/02 01:42:14;;;;;;;12.57;4.95;;;10.70;99.90;;;;;;5062780;28;20056;-50
2023/01/02 01:44:49;;;;;;;13.13;4.43;;;10.70;99.90;;;;;;5067401;28;20137;-50
2023/01/02 01:47:39;;;;;;;13.68;4.63;;;10.70;99.90;;;;;;5067206;28;20047;-51
2023/01/02 01:50:20;;;;;;;10.85;5.00;;;10.70;99.90;;;;;;5047179;28;20119;-48
2023/01/02 01:53:14;;;;;;;10.35;4.75;;;10.70;99.90;;;;;;5070520;28;20049;-49
2023/01/02 01:55:48;;;;;;;10.85;4.63;;;10.70;99.90;;;;;;5079076;28;20049;-48
2023/01/02 01:58:19;;;;;;;15.35;5.40;;;10.70;99.90;;;;;;5051250;28;20520;-49
2023/01/02 02:00:45;;;;;;;14.98;5.13;;;10.70;99.90;;;;;;5064056;28;20036;-52
2023/01/02 02:03:17;;;;;;;10.45;4.72;;;10.70;99.90;;;;;;5065199;28;20055;-48
2023/01/02 02:05:44;;;;;;;11.32;5.25;;;10.70;99.90;;;;;;5058800;28;20509;-46
2023/01/02 02:08:17;;;;;;;12.70;4.78;;;10.70;99.90;;;;;;5066380;28;20044;-50
2023/01/02 02:10:43;;;;;;;11.57;5.10;;;10.80;99.90;;;;;;5068520;28;20049;-45
2023/01/02 02:13:09;;;;;;;12.23;6.75;;;10.70;99.90;;;;;;5067906;28;20076;-52
2023/01/02 02:16:00;;;;;;;12.55;4.80;;;10.80;99.90;;;;;;5063354;28;20211;-49
2023/01/02 02:18:41;;;;;;;11.63;4.03;;;10.80;99.90;;;;;;5056802;28;20048;-48
2023/01/02 02:21:15;;;;;;;13.10;5.07;;;10.80;99.90;;;;;;5063811;28;20049;-48
2023/01/02 02:24:11;;;;;;;11.57;5.00;;;10.80;99.90;;;;;;5064905;28;20028;-44
2023/01/02 02:26:55;;;;;;;10.35;4.65;;;10.80;99.90;;;;;;5060762;28;20037;-44
2023/01/02 02:29:58;;;;;;;14.65;4.57;;;10.80;99.90;;;;;;5064876;28;20119;-51
2023/01/02 02:32:51;;;;;;;9.52;4.22;;;10.80;99.90;;;;;;5066914;28;20040;-49
2023/01/02 02:35:39;;;;;;;6.20;2.87;;;10.90;99.90;;;;;;5066860;28;20049;-51
2023/01/02 02:38:11;;;;;;;11.30;4.65;;;10.90;99.90;;;;;;5060265;28;20044;-49
2023/01/02 02:41:04;;;;;;;13.43;4.18;;;10.90;99.90;;;;;;5062338;28;20098;-49
2023/01/02 02:43:55;;;;;;;12.30;4.68;;;10.90;99.90;;;;;;5061571;28;20044;-47
2023/01/02 02:46:30;;;;;;;11.90;4.38;;;11.00;99.90;;;;;;5063956;28;20075;-50
2023/01/02 02:49:14;;;;;;;11.13;4.38;;;11.00;99.90;;;;;;5066884;28;20067;-44
2023/01/02 02:51:50;;;;;;;10.63;4.22;;;11.00;99.90;;;;;;5064708;28;20069;-43
2023/01/02 02:54:25;;;;;;;9.52;4.05;;;11.00;99.90;;;;;;5046713;28;20056;-47
2023/01/02 02:56:53;;;;;;;9.90;4.25;;;11.00;99.90;;;;;;5067868;28;20109;-52
2023/01/02 02:59:19;;;;;;;14.07;4.15;;;11.00;99.90;;;;;;5066619;28;20071;-50
2023/01/02 03:01:45;;;;;;;14.20;4.00;;;11.00;99.90;;;;;;5066305;28;20041;-52
2023/01/02 03:04:28;;;;;;;11.55;4.00;;;11.10;99.90;;;;;;5069163;28;20085;-48
2023/01/02 03:07:24;;;;;;;10.77;4.00;;;11.10;99.90;;;;;;5064938;28;20044;-47
2023/01/02 03:10:14;;;;;;;13.30;4.35;;;11.10;99.90;;;;;;5068966;28;20441;-52
2023/01/02 03:12:50;;;;;;;9.77;4.13;;;11.10;99.90;;;;;;5066544;28;20471;-50
2023/01/02 03:15:34;;;;;;;10.43;4.05;;;11.10;99.90;;;;;;5054834;28;20155;-45
2023/01/02 03:18:09;;;;;;;11.98;5.05;;;11.10;99.90;;;;;;5065388;28;20756;-49
2023/01/02 03:20:45;;;;;;;11.43;3.85;;;11.10;99.90;;;;;;5065340;28;20123;-47
2023/01/02 03:23:20;;;;;;;10.25;3.80;;;11.10;99.90;;;;;;5059247;28;20097;-47
2023/01/02 03:25:46;;;;;;;11.32;4.15;;;11.10;99.90;;;;;;5064458;28;20895;-47
2023/01/02 03:28:16;;;;;;;10.70;4.05;;;11.10;99.90;;;;;;5068232;28;20526;-40
2023/01/02 03:30:44;;;;;;;10.02;4.25;;;11.10;99.90;;;;;;5065796;28;20064;-48
2023/01/02 03:33:14;;;;;;;11.90;4.22;;;11.00;99.90;;;;;;5064114;28;20120;-49
2023/01/02 03:35:52;;;;;;;12.32;4.10;;;11.00;99.90;;;;;;5050579;28;20041;-50
2023/01/02 03:38:29;;;;;;;11.93;4.10;;;11.00;99.90;;;;;;5058961;28;20041;-46
2023/01/02 03:41:13;;;;;;;12.98;4.20;;;11.00;99.90;;;;;;5066570;28;20040;-50
2023/01/02 03:43:42;;;;;;;10.38;4.32;;;11.00;99.90;;;;;;5058916;28;20052;-50
2023/01/02 03:46:40;;;;;;;14.10;4.95;;;11.00;99.90;;;;;;5061448;28;20048;-52
2023/01/02 03:49:33;;;;;;;11.25;4.07;;;11.00;99.90;;;;;;5061958;28;20057;-44
2023/01/02 03:51:59;;;;;;;10.20;4.35;;;11.00;99.90;;;;;;5039146;28;20111;-52
2023/01/02 03:54:26;;;;;;;8.07;4.03;;;11.00;99.90;;;;;;5064305;28;20544;-48
2023/01/02 03:57:04;;;;;;;10.73;4.30;;;10.90;99.90;;;;;;5066026;28;20110;-49
2023/01/02 03:59:59;;;;;;;14.57;4.68;;;11.00;99.90;;;;;;5070223;28;20421;-45
2023/01/02 04:02:54;;;;;;;10.30;4.28;;;11.00;99.90;;;;;;5071623;28;21068;-50
2023/01/02 04:05:24;;;;;;;12.50;4.13;;;11.00;99.90;;;;;;5057996;28;20052;-44
2023/01/02 04:08:10;;;;;;;12.68;4.28;;;11.00;99.90;;;;;;5073176;28;20092;-50
2023/01/02 04:10:37;;;;;;;10.73;4.05;;;11.00;99.90;;;;;;5073928;28;20154;-51
2023/01/02 04:13:12;;;;;;;11.27;4.38;;;11.10;99.90;;;;;;5075654;28;20039;-52
2023/01/02 04:15:40;;;;;;;9.82;4.00;;;11.10;99.90;;;;;;5066655;28;20032;-50
2023/01/02 04:18:14;;;;;;;11.63;4.35;;;11.10;99.90;;;;;;5053142;28;20135;-52
2023/01/02 04:20:45;;;;;;;9.05;3.92;;;11.10;99.90;;;;;;5066380;28;20055;-48
2023/01/02 04:23:26;;;;;;;13.10;4.50;;;11.10;99.90;;;;;;5072252;28;20036;-51
2023/01/02 04:25:59;;;;;;;10.80;4.75;;;11.20;99.90;;;;;;5073941;28;20058;-46
2023/01/02 04:28:27;;;;;;;10.50;4.00;;;11.20;99.90;;;;;;5075788;28;20180;-46
2023/01/02 04:31:14;;;;;;;8.60;4.00;;;11.20;99.90;;;;;;5066551;28;20036;-54
2023/01/02 04:33:46;;;;;;;8.43;4.15;;;11.20;99.90;;;;;;5069541;28;20529;-45
2023/01/02 04:36:14;;;;;;;10.27;4.10;;;11.20;99.90;;;;;;5048322;28;20497;-48
2023/01/02 04:38:44;;;;;;;8.13;3.85;;;11.20;99.90;;;;;;5061703;28;20039;-44
2023/01/02 04:41:14;;;;;;;8.30;4.22;;;11.20;99.90;;;;;;5067256;28;20079;-45
2023/01/02 04:43:40;;;;;;;10.85;4.07;;;11.30;99.90;;;;;;5060805;28;20502;-47
2023/01/02 04:46:06;;;;;;;11.60;3.88;;;11.40;99.90;;;;;;5066327;28;20040;-41
2023/01/02 04:48:31;;;;;;;8.45;3.28;;;11.40;99.90;;;;;;5071704;28;20638;-51
2023/01/02 04:50:57;;;;;;;11.35;3.95;;;11.50;99.90;;;;;;5068744;28;20063;-49
2023/01/02 04:53:23;;;;;;;10.57;4.15;;;11.60;99.90;;;;;;5068671;28;20080;-50
2023/01/02 04:55:56;;;;;;;9.57;3.80;;;11.60;99.90;;;;;;5071349;28;20045;-51
2023/01/02 04:58:22;;;;;;;10.35;3.95;;;11.60;99.90;;;;;;5073920;28;20071;-44
2023/01/02 05:00:48;;;;;;;12.25;3.72;;;11.60;99.90;;;;;;5067850;28;20033;-49
2023/01/02 05:03:15;;;;;;;8.95;3.72;;;11.70;99.90;;;;;;5068992;28;20519;-51
2023/01/02 05:05:40;;;;;;;8.48;3.95;;;11.70;99.90;;;;;;5071558;28;20056;-51
2023/01/02 05:08:06;;;;;;;10.88;4.28;;;11.70;99.90;;;;;;5070611;28;20044;-51
2023/01/02 05:10:32;;;;;;;7.28;3.88;;;11.70;99.90;;;;;;5067960;28;20102;-48
2023/01/02 05:12:58;;;;;;;11.23;4.28;;;11.80;99.90;;;;;;5064231;28;20032;-43
2023/01/02 05:15:24;;;;;;;9.15;4.13;;;11.80;99.90;;;;;;5068987;28;20036;-50
2023/01/02 05:17:50;;;;;;;9.65;3.97;;;11.80;99.90;;;;;;5066438;28;20525;-44
2023/01/02 05:20:15;;;;;;;9.68;4.72;;;11.70;99.90;;;;;;5068040;28;20167;-50
2023/01/02 05:25:30;;;;;;;7.97;4.03;;;11.80;99.90;;;;;;5067668;28;20119;-51
2023/01/02 05:27:56;;;;;;;16.00;5.20;;;11.80;99.90;;;;;;5049556;28;20045;-51
2023/01/02 05:30:22;;;;;;;6.65;3.47;;;11.80;99.90;;;;;;5070319;28;20106;-46
2023/01/02 05:32:48;;;;;;;10.95;4.40;;;11.80;99.90;;;;;;5068358;28;20032;-51
2023/01/02 05:35:14;;;;;;;7.20;3.85;;;11.80;99.90;;;;;;5069629;28;20040;-49
2023/01/02 05:37:40;;;;;;;9.20;3.97;;;11.80;99.90;;;;;;5063764;28;20565;-51
2023/01/02 05:40:07;;;;;;;8.35;3.65;;;11.80;99.90;;;;;;5050082;28;20040;-52
2023/01/02 05:42:33;;;;;;;8.32;3.70;;;11.80;99.90;;;;;;5065827;28;20036;-48
2023/01/02 05:44:59;;;;;;;8.73;3.80;;;11.80;99.90;;;;;;5070429;28;20383;-50
2023/01/02 05:47:24;;;;;;;9.25;4.07;;;11.80;99.90;;;;;;5064775;28;20486;-47
2023/01/02 05:49:50;;;;;;;8.15;3.83;;;11.80;99.90;;;;;;5065625;28;20089;-46
2023/01/02 05:52:16;;;;;;;9.40;3.30;;;11.90;99.90;;;;;;5065575;28;20040;-43
2023/01/02 05:54:42;;;;;;;9.18;3.97;;;11.90;99.90;;;;;;5064889;28;20410;-47
2023/01/02 05:57:07;;;;;;;9.38;3.58;;;11.90;99.90;;;;;;5064076;28;20041;-51
2023/01/02 05:59:33;;;;;;;6.03;3.03;;;11.90;99.90;;;;;;5068933;28;20127;-49
2023/01/02 06:01:59;;;;;;;5.38;2.80;;;11.90;99.90;;;;;;5068929;28;20044;-47
2023/01/02 06:04:25;;;;;;;11.05;2.78;;;11.90;99.90;;;;;;5066917;28;20076;-46
2023/01/02 06:06:50;;;;;;;6.65;2.75;;;12.00;99.90;;;;;;5062818;28;20071;-46
2023/01/02 06:09:16;;;;;;;8.05;3.60;;;11.90;99.90;;;;;;5062006;28;20367;-50
2023/01/02 06:11:42;;;;;;;9.85;3.92;;;11.90;99.90;;;;;;5061525;28;20615;-46
2023/01/02 06:14:09;;;;;;;12.38;3.67;;;11.90;99.90;;;;;;5045598;28;20044;-51
2023/01/02 06:16:36;;;;;;;10.88;3.75;;;11.90;99.90;;;;;;5070153;28;20474;-51
2023/01/02 06:19:03;;;;;;;10.98;3.63;;;11.90;99.90;;;;;;5070056;28;20036;-44
2023/01/02 06:21:28;;;;;;;7.75;3.80;;;11.80;99.90;;;;;;5067759;28;20116;-46
2023/01/02 06:23:56;;;;;;;7.72;3.90;;;11.80;99.90;;;;;;5067212;28;20397;-48
2023/01/02 06:26:23;;;;;;;8.90;4.10;;;11.80;99.90;;;;;;5070015;28;20037;-48
2023/01/02 06:28:52;;;;;;;8.10;3.70;;;11.80;99.90;;;;;;5066011;28;20500;-47
2023/01/02 06:31:19;;;;;;;13.82;4.22;;;11.80;99.90;;;;;;5069505;28;20090;-50
2023/01/02 06:33:45;;;;;;;7.35;4.20;;;11.80;99.90;;;;;;5066092;28;20511;-51
2023/01/02 06:36:16;;;;;;;7.00;3.33;;;11.80;99.90;;;;;;5072784;28;20044;-42
2023/01/02 06:38:42;;;;;;;4.88;1.58;;;11.80;99.90;;;;;;5066163;28;20059;-46
2023/01/02 06:41:09;;;;;;;2.67;1.02;;;11.70;99.90;;;;;;5065707;28;20043;-51
2023/01/02 06:43:40;;;;;;;3.22;1.00;;;11.40;99.90;;;;;;5064419;28;20041;-51
2023/01/02 06:46:05;;;;;;;1.90;1.00;;;11.20;99.90;;;;;;5077938;28;20045;-49
2023/01/02 06:48:32;;;;;;;2.35;1.20;;;11.10;99.90;;;;;;5065375;28;20090;-47
2023/01/02 06:51:00;;;;;;;1.40;0.90;;;10.90;99.90;;;;;;5047342;28;20100;-40
2023/01/02 06:53:26;;;;;;;2.10;1.08;;;10.80;99.90;;;;;;5062850;28;20078;-49
2023/01/02 06:55:57;;;;;;;2.50;1.00;;;10.70;99.90;;;;;;5063834;28;20397;-49
2023/01/02 06:58:24;;;;;;;1.88;1.08;;;10.60;99.90;;;;;;5046905;28;20063;-48
2023/01/02 07:00:50;;;;;;;2.22;1.08;;;10.50;99.90;;;;;;5068855;28;20525;-43
2023/01/02 07:03:16;;;;;;;2.60;1.20;;;10.40;99.90;;;;;;5063424;28;20153;-47
2023/01/02 07:05:42;;;;;;;2.10;1.08;;;10.30;99.90;;;;;;5065640;28;20396;-45
2023/01/02 07:08:08;;;;;;;3.55;1.70;;;10.30;99.90;;;;;;5064140;28;20037;-51
2023/01/02 07:10:34;;;;;;;2.50;1.35;;;10.20;99.90;;;;;;5048298;28;20060;-49
2023/01/02 07:13:00;;;;;;;3.20;1.85;;;10.20;99.90;;;;;;5074621;28;20040;-49
2023/01/02 07:15:26;;;;;;;3.58;2.17;;;10.10;99.90;;;;;;5062314;28;20044;-50
2023/01/02 07:17:51;;;;;;;4.45;2.38;;;10.10;99.90;;;;;;5068499;28;20037;-50
2023/01/02 07:20:17;;;;;;;3.28;1.80;;;10.10;99.90;;;;;;5060267;28;21962;-48
2023/01/02 07:22:49;;;;;;;5.50;2.45;;;10.00;99.90;;;;;;5043407;28;20182;-49
2023/01/02 07:25:15;;;;;;;4.07;2.20;;;10.00;99.90;;;;;;5076491;28;20064;-51
2023/01/02 07:27:41;;;;;;;3.03;1.52;;;9.90;99.90;;;;;;5061902;28;20075;-42
2023/01/02 07:30:07;;;;;;;4.45;1.75;;;9.80;99.90;;;;;;5066461;28;20140;-40
2023/01/02 07:32:33;;;;;;;3.63;1.63;;;9.70;99.90;;;;;;5063596;28;20033;-50
2023/01/02 07:34:58;;;;;;;3.22;1.63;;;9.70;99.90;;;;;;5063348;28;20029;-49
2023/01/02 07:37:24;;;;;;;6.03;1.73;;;9.60;99.90;;;;;;5064221;28;20036;-50
2023/01/02 07:39:50;;;;;;;5.55;2.05;;;9.40;99.90;;;;;;5062272;28;20045;-49
2023/01/02 07:42:16;;;;;;;4.57;1.98;;;9.30;99.90;;;;;;5062965;28;20033;-50
2023/01/02 07:44:41;;;;;;;4.30;1.90;;;9.30;99.90;;;;;;5062172;28;20033;-42
2023/01/02 07:47:07;;;;;;;5.40;1.80;;;9.20;99.90;;;;;;5065142;28;20040;-50
2023/01/02 07:49:32;;;;;;;4.85;1.83;;;9.10;99.90;;;;;;5042074;28;20037;-48
2023/01/02 07:51:58;;;;;;;4.43;1.80;;;9.10;99.90;;;;;;5060058;28;20454;-51
2023/01/02 07:54:24;;;;;;;2.97;1.00;;;9.00;99.90;;;;;;5064728;28;20064;-50
2023/01/02 07:56:50;;;;;;;1.95;0.80;;;9.00;99.90;;;;;;5060667;28;20079;-51
2023/01/02 07:59:16;;;;;;;2.55;0.77;;;8.90;99.90;;;;;;5063149;28;20166;-48
2023/01/02 08:01:42;;;;;;;3.80;0.68;;;8.80;99.90;;;;;;5046563;28;20553;-49
2023/01/02 08:04:08;;;;;;;4.60;0.70;;;8.80;99.90;;;;;;5058200;28;20076;-46
2023/01/02 08:06:34;;;;;;;2.38;0.90;;;8.80;99.90;;;;;;5061603;28;20032;-50
2023/01/02 08:08:59;;;;;;;2.13;0.60;;;8.70;99.90;;;;;;5068117;28;20048;-50
2023/01/02 08:11:25;;;;;;;2.30;0.57;;;8.70;99.90;;;;;;5065219;28;20044;-51
2023/01/02 08:13:51;;;;;;;3.65;0.50;;;8.60;99.90;;;;;;5064312;28;20054;-48
2023/01/02 08:16:19;;;;;;;2.97;0.63;;;8.60;99.90;;;;;;5060888;28;20029;-41
2023/01/02 08:18:50;;;;;;;1.48;0.45;;;8.60;99.90;;;;;;5062413;28;20050;-50
2023/01/02 08:21:15;;;;;;;1.77;0.50;;;8.50;99.90;;;;;;5058454;28;20041;-49
2023/01/02 08:23:41;;;;;;;3.65;0.60;;;8.50;99.90;;;;;;5062016;28;20033;-50
2023/01/02 08:26:09;;;;;;;3.58;0.50;;;8.50;99.90;;;;;;5061349;28;20087;-48
2023/01/02 08:28:37;;;;;;;3.47;0.57;;;8.50;99.90;;;;;;5067315;28;20170;-50
2023/01/02 08:31:11;;;;;;;1.50;0.40;;;8.50;99.90;;;;;;5064445;28;20509;-40
2023/01/02 08:33:37;;;;;;;1.77;0.50;;;8.50;99.90;;;;;;5064179;28;20044;-47
2023/01/02 08:36:03;;;;;;;1.42;0.40;;;8.50;99.90;;;;;;5066552;28;20044;-49
2023/01/02 08:38:29;;;;;;;3.78;0.50;;;8.50;99.90;;;;;;5068980;28;20037;-48
2023/01/02 08:40:57;;;;;;;1.60;0.45;;;8.40;99.90;;;;;;5065680;28;20113;-49
2023/01/02 08:43:24;;;;;;;1.35;0.38;;;8.40;99.90;;;;;;5059635;28;20063;-47
2023/01/02 08:45:49;;;;;;;1.60;0.50;;;8.40;99.90;;;;;;5069048;28;20127;-45
2023/01/02 08:48:15;;;;;;;2.60;0.50;;;8.40;99.90;;;;;;5068048;28;20119;-49
2023/01/02 08:50:40;;;;;;;2.55;0.65;;;8.50;99.90;;;;;;5067399;28;20048;-44
2023/01/02 08:53:06;;;;;;;2.10;0.60;;;8.40;99.90;;;;;;5067493;28;20057;-50
2023/01/02 08:55:32;;;;;;;2.60;0.80;;;8.40;99.90;;;;;;5072320;28;20431;-44
2023/01/02 08:57:57;;;;;;;2.17;0.60;;;8.50;99.90;;;;;;5066158;28;20379;-45
2023/01/02 09:00:23;;;;;;;2.78;0.68;;;8.50;99.90;;;;;;5064012;28;20182;-45
2023/01/02 09:02:49;;;;;;;4.68;0.82;;;8.50;99.90;;;;;;5068734;28;20055;-50
2023/01/02 09:05:14;;;;;;;3.22;0.60;;;8.50;99.90;;;;;;5066932;28;20126;-45
2023/01/02 09:07:42;;;;;;;3.00;0.75;;;8.40;99.90;;;;;;5072640;28;20051;-44
2023/01/02 09:10:08;;;;;;;2.70;0.70;;;8.40;99.90;;;;;;5059806;28;20044;-43
2023/01/02 09:12:35;;;;;;;2.38;0.70;;;8.40;99.90;;;;;;5060380;28;20071;-46
2023/01/02 09:15:01;;;;;;;3.92;0.57;;;8.40;99.90;;;;;;5069426;28;20066;-41
2023/01/02 09:17:27;;;;;;;2.75;0.70;;;8.40;99.90;;;;;;5068665;28;20051;-48
2023/01/02 09:19:53;;;;;;;4.30;0.90;;;8.40;99.90;;;;;;5068756;28;20119;-47
2023/01/02 09:22:18;;;;;;;1.95;0.40;;;8.40;99.90;;;;;;5070149;28;20045;-50
2023/01/02 09:24:44;;;;;;;1.85;0.60;;;8.40;99.90;;;;;;5071840;28;20085;-47
2023/01/02 09:27:10;;;;;;;2.15;0.50;;;8.40;99.90;;;;;;5068229;28;20280;-45
2023/01/02 09:29:36;;;;;;;1.63;0.55;;;8.40;99.90;;;;;;5069418;28;20134;-49
2023/01/02 09:32:01;;;;;;;4.78;0.55;;;8.40;99.90;;;;;;5065632;28;20497;-44
2023/01/02 09:34:27;;;;;;;2.33;0.60;;;8.50;99.90;;;;;;5068737;28;20170;-48
2023/01/02 09:36:53;;;;;;;1.88;0.50;;;8.50;99.90;;;;;;5067173;28;20049;-45
2023/01/02 09:39:18;;;;;;;2.00;0.65;;;8.50;99.90;;;;;;5066586;28;20032;-45
2023/01/02 09:41:51;;;;;;;2.65;0.50;;;8.50;99.90;;;;;;5064791;28;20040;-50
2023/01/02 09:44:28;;;;;;;2.45;0.50;;;8.60;99.90;;;;;;5070903;28;20043;-38
2023/01/02 09:47:05;;;;;;;0.85;0.40;;;8.60;99.90;;;;;;5060524;28;20501;-50
2023/01/02 09:49:36;;;;;;;2.17;0.60;;;8.60;99.90;;;;;;5064234;28;20044;-47
2023/01/02 09:52:01;;;;;;;4.40;0.57;;;8.60;99.90;;;;;;5066139;28;20111;-49
2023/01/02 09:54:32;;;;;;;2.47;0.32;;;8.60;99.90;;;;;;5069204;28;20521;-43
2023/01/02 09:57:26;;;;;;;1.02;0.40;;;8.70;99.90;;;;;;5057591;28;20088;-44
2023/01/02 10:00:18;;;;;;;1.95;0.55;;;8.70;99.90;;;;;;5063511;28;20044;-43
2023/01/02 10:03:18;;;;;;;2.13;0.63;;;8.70;99.90;;;;;;5060368;28;20517;-51
2023/01/02 10:05:55;;;;;;;2.92;0.77;;;8.80;99.90;;;;;;5063614;28;20098;-47
2023/01/02 10:08:39;;;;;;;1.38;0.50;;;8.80;99.90;;;;;;5070207;28;20056;-46
2023/01/02 10:11:15;;;;;;;1.80;0.50;;;8.80;99.90;;;;;;5044101;28;20044;-44
2023/01/02 10:13:58;;;;;;;1.67;0.57;;;8.80;99.90;;;;;;5072839;28;20095;-50
2023/01/02 10:16:30;;;;;;;2.17;0.60;;;8.80;99.90;;;;;;5055545;28;20049;-48
2023/01/02 10:18:59;;;;;;;3.30;1.00;;;8.80;99.90;;;;;;5068974;28;20173;-49
2023/01/02 10:21:28;;;;;;;1.58;0.60;;;8.80;99.90;;;;;;5065975;28;20044;-45
2023/01/02 10:24:00;;;;;;;3.67;1.33;;;8.80;99.90;;;;;;5062863;28;20120;-49
2023/01/02 10:26:35;;;;;;;4.05;1.80;;;8.80;99.90;;;;;;5065651;28;20040;-47
2023/01/02 10:29:15;;;;;;;6.28;2.13;;;8.80;99.90;;;;;;5064070;28;20047;-47
2023/01/02 10:31:45;;;;;;;7.05;3.08;;;8.80;99.90;;;;;;5067016;28;20558;-46
2023/01/02 10:34:16;;;;;;;8.35;3.10;;;8.70;99.90;;;;;;5066828;28;20068;-49
2023/01/02 10:36:44;;;;;;;8.00;3.53;;;8.80;99.90;;;;;;5057650;28;20135;-44
2023/01/02 10:39:17;;;;;;;8.60;3.10;;;8.70;99.90;;;;;;5064201;28;20072;-50
2023/01/02 10:41:49;;;;;;;10.02;2.75;;;8.80;99.90;;;;;;5060140;28;20047;-47
2023/01/02 10:44:34;;;;;;;5.47;1.00;;;8.80;99.90;;;;;;5068936;28;20032;-47
2023/01/02 10:47:18;;;;;;;4.75;1.17;;;8.80;99.90;;;;;;5065122;28;20501;-50
2023/01/02 10:49:44;;;;;;;5.53;0.82;;;8.90;99.90;;;;;;5067968;28;20115;-49
2023/01/02 10:52:21;;;;;;;3.25;1.10;;;8.90;99.90;;;;;;5064191;28;20551;-49
2023/01/02 10:54:52;;;;;;;4.50;1.83;;;8.90;99.90;;;;;;5044792;28;20105;-48
2023/01/02 10:57:24;;;;;;;6.20;1.60;;;8.90;99.90;;;;;;5071292;28;20044;-50
2023/01/02 10:59:56;;;;;;;3.30;1.25;;;9.00;99.90;;;;;;5065790;28;20493;-45
2023/01/02 11:02:35;;;;;;;4.38;1.73;;;9.00;99.90;;;;;;5056427;28;20159;-48
2023/01/02 11:05:03;;;;;;;8.45;1.65;;;9.00;99.90;;;;;;5051307;28;20048;-48
2023/01/02 11:07:34;;;;;;;3.35;1.48;;;9.00;99.90;;;;;;5062965;28;20035;-40
2023/01/02 11:10:00;;;;;;;5.18;1.40;;;9.10;99.90;;;;;;5068618;28;20572;-46
2023/01/02 11:12:26;;;;;;;2.00;0.95;;;9.10;99.90;;;;;;5063008;28;20040;-47
2023/01/02 11:15:07;;;;;;;3.45;1.30;;;9.20;99.90;;;;;;5064656;28;20509;-47
2023/01/02 11:17:41;;;;;;;4.30;0.80;;;9.20;99.90;;;;;;5069336;28;20516;-45
2023/01/02 11:20:22;;;;;;;4.07;1.10;;;9.20;99.90;;;;;;5059568;28;20071;-46
2023/01/02 11:22:47;;;;;;;6.82;1.00;;;9.20;99.90;;;;;;5061971;28;20301;-47
2023/01/02 11:25:23;;;;;;;4.22;1.13;;;9.10;99.90;;;;;;5065756;28;20082;-42
2023/01/02 11:27:49;;;;;;;4.40;1.10;;;9.20;99.90;;;;;;5062403;28;20082;-45
2023/01/02 11:30:42;;;;;;;5.22;0.80;;;9.20;99.90;;;;;;5047853;28;20575;-48
2023/01/02 11:33:23;;;;;;;5.30;0.57;;;9.20;99.90;;;;;;5058547;28;20040;-50
2023/01/02 11:36:02;;;;;;;5.20;0.70;;;9.20;99.90;;;;;;5060710;28;20067;-48
2023/01/02 11:38:41;;;;;;;4.05;0.77;;;9.10;99.90;;;;;;5067781;28;20156;-49
2023/01/02 11:43:47;;;;;;;2.00;0.50;;;9.10;99.90;;;;;;5073371;28;20044;-49
2023/01/02 11:44:29;;;;;;;4.80;0.82;;;9.10;99.90;;;;;;5067800;28;20203;-50
2023/01/02 11:46:56;;;;;;;5.65;1.17;;;9.20;99.90;;;;;;5066902;28;20129;-49
2023/01/02 11:49:27;;;;;;;4.57;0.70;;;9.20;99.90;;;;;;5065141;28;20036;-46
2023/01/02 11:52:02;;;;;;;4.15;1.20;;;9.20;99.90;;;;;;5060812;28;20059;-40
2023/01/02 11:55:04;;;;;;;7.00;0.98;;;9.20;99.90;;;;;;5055703;28;20059;-42
2023/01/02 11:57:48;;;;;;;5.87;0.63;;;9.30;99.90;;;;;;5012449;28;20048;-46
2023/01/02 12:00:17;;;;;;;4.13;0.60;;;9.30;99.90;;;;;;5059040;28;20048;-42
2023/01/02 12:02:51;;;;;;;2.70;0.50;;;9.30;99.90;;;;;;5069759;28;20036;-50
2023/01/02 12:05:31;;;;;;;2.25;0.50;;;9.30;99.90;;;;;;5061190;28;20041;-43
2023/01/02 12:08:21;;;;;;;1.55;0.50;;;9.30;99.90;;;;;;5066647;28;20048;-44
2023/01/02 12:11:24;;;;;;;3.60;0.57;;;9.30;99.90;;;;;;5070131;28;20086;-46
2023/01/02 12:14:15;;;;;;;5.80;0.80;;;9.30;99.90;;;;;;5065526;28;20037;-41
2023/01/02 12:16:54;;;;;;;2.65;0.40;;;9.20;99.90;;;;;;5063418;28;20102;-47
2023/01/02 12:19:38;;;;;;;2.83;0.50;;;9.20;99.90;;;;;;5065742;28;20485;-51
2023/01/02 12:22:28;;;;;;;3.47;0.65;;;9.20;99.90;;;;;;5070044;28;20509;-47
2023/01/02 12:25:13;;;;;;;4.68;0.95;;;9.20;99.90;;;;;;5069864;28;20037;-42
2023/01/02 12:27:49;;;;;;;7.22;0.45;;;9.20;99.90;;;;;;5066309;28;20078;-51
2023/01/02 12:30:19;;;;;;;2.67;0.60;;;9.20;99.90;;;;;;5060439;28;20090;-44
2023/01/02 12:33:09;;;;;;;2.53;0.60;;;9.30;99.90;;;;;;5046138;28;20059;-48
2023/01/02 12:36:08;;;;;;;2.17;0.47;;;9.30;99.90;;;;;;5068936;28;20501;-51
2023/01/02 12:38:56;;;;;;;7.75;0.70;;;9.30;99.90;;;;;;5065096;28;20760;-47
2023/01/02 12:41:49;;;;;;;3.50;0.65;;;9.30;99.90;;;;;;5067669;28;20052;-45
2023/01/02 12:44:20;;;;;;;6.38;0.80;;;9.30;99.90;;;;;;5059958;28;20494;-50
2023/01/02 12:46:57;;;;;;;6.18;1.02;;;9.30;99.90;;;;;;5070213;28;20037;-50
2023/01/02 12:49:48;;;;;;;6.03;1.20;;;9.30;99.90;;;;;;5068438;28;20048;-48
2023/01/02 12:53:03;;;;;;;6.13;0.70;;;9.40;99.90;;;;;;5064825;28;20079;-49
2023/01/02 12:56:03;;;;;;;3.90;0.80;;;9.40;99.90;;;;;;5067684;28;20498;-48
2023/01/02 12:59:00;;;;;;;3.55;0.80;;;9.40;99.90;;;;;;5068818;28;20043;-49
2023/01/02 13:01:31;;;;;;;6.07;0.75;;;9.40;99.90;;;;;;5029769;28;20048;-49
2023/01/02 13:04:04;;;;;;;7.80;0.70;;;9.40;99.90;;;;;;5064973;28;20037;-47
2023/01/02 13:06:50;;;;;;;5.90;1.95;;;9.40;99.90;;;;;;5069731;28;20093;-46
2023/01/02 13:09:34;;;;;;;5.95;1.25;;;9.40;99.90;;;;;;5076825;28;20551;-51
2023/01/02 13:12:15;;;;;;;6.70;0.85;;;9.50;99.90;;;;;;5070477;28;20099;-50
2023/01/02 13:14:46;;;;;;;6.70;1.00;;;9.50;99.90;;;;;;5052651;28;20048;-51